Time;durP1;ratioP1;P1;durP2;ratioP2;P2;SDS_P1;SDS_P2;PMS_P1;PMS_P2;Temp;Humidity;BMP_temperature;BMP_pressure;BME280_temperature;BME280_humidity;BME280_pressure;Samples;Min_cycle;Max_cycle;Signal;HPM_P1;HPM_P2
2022/12/29 00:02:23;;;;;;;8.27;7.57;;;2.00;99.90;;;;;;5015269;28;20660;-74
2022/12/29 00:04:50;;;;;;;8.65;7.72;;;2.00;99.90;;;;;;5015859;28;20200;-74
2022/12/29 00:07:16;;;;;;;7.57;6.88;;;2.10;99.90;;;;;;5017931;28;20251;-75
2022/12/29 00:09:42;;;;;;;8.20;7.22;;;2.10;99.90;;;;;;5015964;28;20212;-74
2022/12/29 00:12:07;;;;;;;8.75;7.82;;;2.20;99.90;;;;;;5015065;28;20211;-73
2022/12/29 00:17:17;;;;;;;8.63;7.65;;;2.30;99.90;;;;;;5013508;28;20236;-74
2022/12/29 00:36:19;;;;;;;9.52;8.45;;;2.10;99.90;;;;;;5008224;28;20189;-74
2022/12/29 00:44:20;;;;;;;9.57;7.60;;;2.00;99.90;;;;;;5013862;28;20637;-74
2022/12/29 00:46:46;;;;;;;7.95;7.13;;;2.10;99.90;;;;;;5020263;28;20197;-74
2022/12/29 00:49:31;;;;;;;8.38;7.65;;;2.10;99.90;;;;;;5018943;28;20603;-75
2022/12/29 00:52:03;;;;;;;7.10;6.45;;;2.10;99.90;;;;;;5013488;28;20199;-75
2022/12/29 00:54:34;;;;;;;8.50;7.75;;;2.10;99.90;;;;;;5011812;28;20173;-75
2022/12/29 00:57:00;;;;;;;8.52;7.53;;;2.10;99.90;;;;;;5018715;28;20170;-75
2022/12/29 00:59:26;;;;;;;9.43;8.45;;;2.10;99.90;;;;;;5015373;28;20176;-75
2022/12/29 01:01:53;;;;;;;7.97;7.18;;;2.00;99.90;;;;;;5016437;28;20192;-75
2022/12/29 01:04:20;;;;;;;8.98;7.90;;;2.00;99.90;;;;;;5018082;28;20200;-75
2022/12/29 01:06:46;;;;;;;8.43;7.60;;;2.00;99.90;;;;;;5023098;28;20193;-75
2022/12/29 01:11:56;;;;;;;7.90;7.13;;;1.90;99.90;;;;;;5015496;28;20207;-76
2022/12/29 01:14:22;;;;;;;7.90;7.20;;;1.90;99.90;;;;;;5015396;28;20263;-76
2022/12/29 01:16:48;;;;;;;8.43;7.20;;;1.90;99.90;;;;;;5011973;28;21884;-75
2022/12/29 01:19:15;;;;;;;7.63;6.95;;;2.00;99.90;;;;;;5015646;28;20184;-76
2022/12/29 01:21:41;;;;;;;8.10;7.35;;;2.00;99.90;;;;;;5016139;28;20197;-75
2022/12/29 01:24:07;;;;;;;7.47;6.78;;;2.00;99.90;;;;;;5024701;28;20177;-75
2022/12/29 01:26:33;;;;;;;7.70;6.97;;;2.00;99.90;;;;;;5008951;28;20197;-75
2022/12/29 01:28:58;;;;;;;7.13;6.43;;;2.00;99.90;;;;;;5016628;28;20196;-75
2022/12/29 01:31:24;;;;;;;7.75;6.93;;;2.10;99.90;;;;;;5014237;28;20208;-75
2022/12/29 01:33:50;;;;;;;10.35;7.35;;;2.10;99.90;;;;;;5014941;28;20191;-75
2022/12/29 01:36:17;;;;;;;8.13;7.13;;;2.10;99.90;;;;;;5012408;28;20209;-75
2022/12/29 01:38:43;;;;;;;7.28;6.68;;;2.10;99.90;;;;;;5011788;28;20197;-75
2022/12/29 01:41:10;;;;;;;7.03;6.32;;;2.10;99.90;;;;;;5019664;28;20719;-74
2022/12/29 01:43:46;;;;;;;7.43;6.72;;;2.20;99.90;;;;;;5016097;28;20192;-74
2022/12/29 01:46:37;;;;;;;7.30;6.60;;;2.20;99.90;;;;;;5020371;28;20220;-75
2022/12/29 01:49:03;;;;;;;7.47;6.20;;;2.20;99.90;;;;;;5016108;28;20187;-75
2022/12/29 01:51:31;;;;;;;7.22;6.32;;;2.30;99.90;;;;;;5012776;28;20576;-75
2022/12/29 01:54:00;;;;;;;6.68;6.07;;;2.30;99.90;;;;;;5007358;28;20177;-75
2022/12/29 01:56:26;;;;;;;7.45;6.68;;;2.20;99.90;;;;;;5014633;28;20174;-75
2022/12/29 01:58:57;;;;;;;6.85;6.20;;;2.30;99.90;;;;;;5014623;28;20197;-75
2022/12/29 02:01:23;;;;;;;7.57;6.78;;;2.20;99.90;;;;;;5016401;28;20193;-75
2022/12/29 02:03:50;;;;;;;8.40;6.80;;;2.30;99.90;;;;;;5012081;28;20208;-75
2022/12/29 02:06:29;;;;;;;7.95;6.97;;;2.20;99.90;;;;;;5014409;28;20209;-75
2022/12/29 02:08:56;;;;;;;8.13;7.03;;;2.20;99.90;;;;;;5012412;28;20180;-74
2022/12/29 02:11:24;;;;;;;7.18;6.47;;;2.20;99.90;;;;;;5018703;28;20206;-75
2022/12/29 02:13:50;;;;;;;7.68;6.90;;;2.20;99.90;;;;;;5013151;28;20648;-75
2022/12/29 02:16:24;;;;;;;6.75;6.07;;;2.30;99.90;;;;;;5019444;28;20190;-75
2022/12/29 02:19:08;;;;;;;6.85;6.25;;;2.30;99.90;;;;;;5013897;28;20185;-75
2022/12/29 02:21:45;;;;;;;7.35;6.65;;;2.40;99.90;;;;;;5013299;28;20243;-75
2022/12/29 02:24:43;;;;;;;7.55;6.65;;;2.30;99.90;;;;;;5019565;28;20233;-75
2022/12/29 02:27:35;;;;;;;6.00;5.40;;;2.30;99.90;;;;;;5019993;28;20338;-74
2022/12/29 02:30:15;;;;;;;6.68;5.97;;;2.50;99.90;;;;;;5013153;28;20185;-75
2022/12/29 02:33:05;;;;;;;6.18;5.57;;;2.50;99.90;;;;;;5016007;28;20541;-75
2022/12/29 02:35:41;;;;;;;6.40;5.88;;;2.40;99.90;;;;;;5011991;28;20247;-75
2022/12/29 02:38:20;;;;;;;7.45;6.65;;;2.50;99.90;;;;;;5018328;28;20184;-75
2022/12/29 02:40:53;;;;;;;6.68;5.95;;;2.40;99.90;;;;;;5016518;28;20201;-74
2022/12/29 02:43:24;;;;;;;6.65;6.05;;;2.30;99.90;;;;;;5018223;28;20188;-75
2022/12/29 02:45:54;;;;;;;8.15;5.90;;;2.30;99.90;;;;;;5011908;28;20209;-75
2022/12/29 02:48:37;;;;;;;7.93;7.13;;;2.40;99.90;;;;;;5008978;28;20174;-75
2022/12/29 02:51:15;;;;;;;6.57;6.05;;;2.30;99.90;;;;;;5016806;28;20208;-75
2022/12/29 02:56:25;;;;;;;6.88;6.20;;;2.30;99.90;;;;;;5017588;28;20181;-75
2022/12/29 02:58:50;;;;;;;5.60;5.10;;;2.30;99.90;;;;;;5017964;28;20185;-75
2022/12/29 03:01:33;;;;;;;6.90;6.20;;;2.40;99.90;;;;;;5015285;28;20861;-75
2022/12/29 03:03:59;;;;;;;6.88;6.25;;;2.50;99.90;;;;;;5014553;28;20276;-75
2022/12/29 03:06:53;;;;;;;6.38;5.78;;;2.60;99.90;;;;;;5017444;28;20280;-75
2022/12/29 03:09:43;;;;;;;6.22;5.63;;;2.60;99.90;;;;;;5005980;28;20722;-75
2022/12/29 03:19:01;;;;;;;6.00;5.38;;;2.70;99.90;;;;;;5016983;28;20238;-76
2022/12/29 03:24:29;;;;;;;7.25;5.50;;;2.50;99.90;;;;;;5012926;28;20191;-75
2022/12/29 03:26:58;;;;;;;6.00;5.50;;;2.60;99.90;;;;;;5013030;28;20184;-75
2022/12/29 03:29:24;;;;;;;6.68;6.07;;;2.60;99.90;;;;;;5013149;28;20252;-75
2022/12/29 03:31:54;;;;;;;6.15;5.55;;;2.60;99.90;;;;;;5023339;28;20296;-75
2022/12/29 03:34:21;;;;;;;5.85;5.35;;;2.70;99.90;;;;;;5020320;28;20205;-74
2022/12/29 03:37:04;;;;;;;6.18;5.68;;;2.70;99.90;;;;;;5014149;28;20173;-75
2022/12/29 03:39:30;;;;;;;8.65;6.30;;;2.70;99.90;;;;;;5011863;28;20204;-74
2022/12/29 03:42:02;;;;;;;5.88;5.38;;;2.70;99.90;;;;;;5014446;28;20757;-74
2022/12/29 03:44:40;;;;;;;5.97;5.47;;;2.70;99.90;;;;;;5014247;28;20251;-75
2022/12/29 03:47:07;;;;;;;6.07;5.47;;;2.80;99.90;;;;;;5032220;28;20176;-75
2022/12/29 03:49:33;;;;;;;6.18;5.57;;;2.80;99.90;;;;;;5015283;28;20543;-75
2022/12/29 03:51:59;;;;;;;6.57;5.90;;;2.80;99.90;;;;;;5015055;28;20275;-75
2022/12/29 03:54:24;;;;;;;6.50;5.88;;;2.90;99.90;;;;;;5019670;28;20182;-75
2022/12/29 03:56:50;;;;;;;7.80;5.20;;;2.80;99.90;;;;;;5012786;28;20275;-75
2022/12/29 03:59:16;;;;;;;6.47;5.80;;;2.70;99.90;;;;;;5012563;28;20550;-75
2022/12/29 04:01:41;;;;;;;6.28;5.68;;;2.80;99.90;;;;;;5012351;28;20766;-75
2022/12/29 04:04:07;;;;;;;5.40;5.00;;;2.80;99.90;;;;;;5018751;28;20208;-75
2022/12/29 04:06:32;;;;;;;5.68;5.15;;;2.70;99.90;;;;;;5014651;28;20200;-75
2022/12/29 04:08:58;;;;;;;5.93;5.43;;;2.80;99.90;;;;;;5019523;28;20231;-74
2022/12/29 04:11:23;;;;;;;6.05;5.45;;;2.80;99.90;;;;;;5017472;28;20554;-75
2022/12/29 04:13:49;;;;;;;5.88;5.38;;;2.90;99.90;;;;;;5019567;28;20276;-75
2022/12/29 04:16:15;;;;;;;5.50;5.00;;;2.90;99.90;;;;;;5013347;28;20189;-75
2022/12/29 04:18:40;;;;;;;5.85;5.25;;;2.90;99.90;;;;;;5014989;28;20235;-75
2022/12/29 04:21:06;;;;;;;6.00;5.50;;;3.00;99.90;;;;;;5013162;28;20879;-75
2022/12/29 04:23:35;;;;;;;6.97;5.90;;;2.90;99.90;;;;;;5016375;28;20184;-75
2022/12/29 04:26:01;;;;;;;5.60;5.10;;;3.00;99.90;;;;;;5015602;28;20634;-75
2022/12/29 04:28:27;;;;;;;5.80;5.25;;;3.00;99.90;;;;;;5013352;28;20181;-75
2022/12/29 04:30:53;;;;;;;5.53;5.05;;;3.00;99.90;;;;;;5017325;28;20193;-75
2022/12/29 04:33:20;;;;;;;6.10;5.03;;;3.10;99.90;;;;;;5015054;28;20188;-75
2022/12/29 04:35:46;;;;;;;6.13;5.35;;;3.10;99.90;;;;;;5015601;28;20545;-75
2022/12/29 04:38:12;;;;;;;5.65;5.15;;;3.00;99.90;;;;;;5016270;28;20181;-75
2022/12/29 04:40:39;;;;;;;5.85;5.18;;;3.00;99.90;;;;;;5016645;28;20208;-75
2022/12/29 04:43:06;;;;;;;6.30;4.80;;;2.90;99.90;;;;;;5010793;28;20197;-74
2022/12/29 04:45:31;;;;;;;5.70;5.20;;;2.90;99.90;;;;;;5018481;28;20204;-74
2022/12/29 04:47:57;;;;;;;5.10;4.70;;;2.90;99.90;;;;;;5009592;28;20912;-74
2022/12/29 04:50:22;;;;;;;5.57;5.07;;;2.90;99.90;;;;;;5016037;28;20193;-75
2022/12/29 04:52:48;;;;;;;5.85;5.35;;;3.00;99.90;;;;;;5013348;28;20190;-74
2022/12/29 04:55:14;;;;;;;6.22;5.63;;;3.00;99.90;;;;;;5031102;28;20542;-74
2022/12/29 04:57:40;;;;;;;5.28;4.65;;;3.00;99.90;;;;;;5018088;28;20676;-74
2022/12/29 05:00:08;;;;;;;5.60;5.10;;;3.10;99.90;;;;;;5015115;28;20185;-74
2022/12/29 05:02:34;;;;;;;6.18;5.57;;;3.10;99.90;;;;;;5014665;28;20212;-74
2022/12/29 05:04:59;;;;;;;5.72;5.32;;;3.10;99.90;;;;;;5015950;28;20244;-74
2022/12/29 05:07:25;;;;;;;5.13;4.70;;;3.20;99.90;;;;;;5021614;28;20179;-75
2022/12/29 05:09:51;;;;;;;5.43;4.93;;;3.10;99.90;;;;;;5015878;28;20177;-75
2022/12/29 05:12:16;;;;;;;5.75;5.18;;;3.10;99.90;;;;;;5018795;28;20668;-75
2022/12/29 05:14:42;;;;;;;5.50;4.60;;;3.10;99.90;;;;;;5014927;28;20169;-74
2022/12/29 05:17:07;;;;;;;5.47;4.90;;;3.00;99.90;;;;;;5015951;28;20181;-74
2022/12/29 05:19:33;;;;;;;5.90;5.28;;;2.90;99.90;;;;;;5017888;28;20173;-74
2022/12/29 05:21:59;;;;;;;5.40;5.00;;;2.90;99.90;;;;;;5016201;28;20285;-74
2022/12/29 05:24:24;;;;;;;6.10;5.47;;;2.80;99.90;;;;;;5014402;28;20216;-74
2022/12/29 05:26:50;;;;;;;6.03;5.53;;;2.80;99.90;;;;;;5012068;28;20212;-75
2022/12/29 05:29:15;;;;;;;6.03;5.50;;;2.80;99.90;;;;;;5014961;28;20535;-74
2022/12/29 05:31:41;;;;;;;6.97;5.93;;;2.80;99.90;;;;;;5013283;28;20197;-74
2022/12/29 05:34:07;;;;;;;5.60;4.97;;;2.70;99.90;;;;;;5013981;28;20268;-75
2022/12/29 05:36:32;;;;;;;6.22;5.10;;;2.80;99.90;;;;;;5011690;28;20177;-75
2022/12/29 05:38:58;;;;;;;5.68;5.18;;;2.80;99.90;;;;;;5014985;28;20660;-75
2022/12/29 05:41:23;;;;;;;5.68;5.07;;;2.90;99.90;;;;;;5014170;28;20209;-75
2022/12/29 05:43:49;;;;;;;5.50;5.00;;;2.80;99.90;;;;;;5017053;28;20193;-75
2022/12/29 05:46:15;;;;;;;6.40;5.47;;;2.70;99.90;;;;;;5016602;28;20209;-74
2022/12/29 05:48:40;;;;;;;6.35;5.25;;;2.70;99.90;;;;;;5010521;28;20191;-74
2022/12/29 05:51:06;;;;;;;5.50;4.93;;;2.60;99.90;;;;;;5013048;28;20606;-75
2022/12/29 05:53:32;;;;;;;6.13;5.63;;;2.60;99.90;;;;;;5011960;28;20207;-74
2022/12/29 05:55:58;;;;;;;5.65;5.10;;;2.50;99.90;;;;;;5011538;28;20193;-75
2022/12/29 05:58:23;;;;;;;6.53;5.15;;;2.50;99.90;;;;;;5013402;28;20205;-74
2022/12/29 06:00:49;;;;;;;5.85;5.35;;;2.50;99.90;;;;;;5014577;28;20194;-74
2022/12/29 06:03:14;;;;;;;4.95;4.55;;;2.50;99.90;;;;;;5010544;28;20207;-74
2022/12/29 06:05:40;;;;;;;5.43;4.93;;;2.50;99.90;;;;;;5009888;28;20220;-75
2022/12/29 06:08:05;;;;;;;5.55;4.97;;;2.50;99.90;;;;;;5012913;28;20211;-75
2022/12/29 06:10:31;;;;;;;5.20;4.70;;;2.50;99.90;;;;;;5013342;28;20208;-74
2022/12/29 06:12:57;;;;;;;6.25;5.65;;;2.40;99.90;;;;;;5009501;28;20181;-74
2022/12/29 06:15:22;;;;;;;5.47;5.05;;;2.40;99.90;;;;;;5014111;28;20208;-75
2022/12/29 06:17:48;;;;;;;5.15;4.72;;;2.40;99.90;;;;;;5016383;28;20189;-74
2022/12/29 06:20:13;;;;;;;5.88;5.25;;;2.40;99.90;;;;;;5011279;28;20580;-74
2022/12/29 06:22:39;;;;;;;5.35;4.90;;;2.50;99.90;;;;;;5011908;28;20173;-75
2022/12/29 06:25:05;;;;;;;5.20;4.80;;;2.50;99.90;;;;;;5012485;28;20734;-75
2022/12/29 06:27:31;;;;;;;5.13;4.72;;;2.50;99.90;;;;;;5012486;28;20185;-75
2022/12/29 06:29:57;;;;;;;4.60;4.20;;;2.50;99.90;;;;;;5009493;28;20535;-75
2022/12/29 06:32:23;;;;;;;5.18;4.75;;;2.60;99.90;;;;;;5010952;28;20185;-74
2022/12/29 06:34:48;;;;;;;5.25;4.85;;;2.70;99.90;;;;;;5012523;28;20324;-75
2022/12/29 06:37:14;;;;;;;5.28;4.78;;;2.70;99.90;;;;;;5008164;28;20182;-75
2022/12/29 06:39:40;;;;;;;5.90;5.30;;;2.70;99.90;;;;;;5011470;28;20268;-75
2022/12/29 06:42:06;;;;;;;5.45;5.05;;;2.70;99.90;;;;;;5032579;28;20201;-75
2022/12/29 06:44:31;;;;;;;7.93;5.28;;;2.70;99.90;;;;;;5011787;28;20234;-77
2022/12/29 06:46:57;;;;;;;5.97;5.43;;;2.60;99.90;;;;;;5009747;28;20184;-75
2022/12/29 06:49:23;;;;;;;6.05;5.10;;;2.50;99.90;;;;;;5010928;28;20173;-76
2022/12/29 06:51:48;;;;;;;5.47;4.97;;;2.50;99.90;;;;;;5014297;28;20200;-76
2022/12/29 06:54:14;;;;;;;5.97;5.35;;;2.50;99.90;;;;;;5011498;28;20212;-76
2022/12/29 06:56:40;;;;;;;5.93;5.35;;;2.50;99.90;;;;;;5018283;28;20256;-77
2022/12/29 06:59:06;;;;;;;5.97;5.40;;;2.50;99.90;;;;;;5016846;28;20270;-79
2022/12/29 07:01:31;;;;;;;5.18;4.72;;;2.60;99.90;;;;;;5013414;28;20201;-78
2022/12/29 07:03:57;;;;;;;5.22;4.82;;;2.50;99.90;;;;;;5016956;28;20267;-75
2022/12/29 07:06:23;;;;;;;5.45;4.95;;;2.50;99.90;;;;;;5014355;28;20205;-74
2022/12/29 07:08:48;;;;;;;5.53;5.13;;;2.40;99.90;;;;;;5019925;28;20239;-75
2022/12/29 07:11:14;;;;;;;6.25;5.32;;;2.30;99.90;;;;;;5009066;28;20198;-75
2022/12/29 07:13:40;;;;;;;5.75;5.25;;;2.40;99.90;;;;;;5011005;28;20165;-76
2022/12/29 07:16:07;;;;;;;5.78;5.00;;;2.30;99.90;;;;;;5020236;28;20200;-77
2022/12/29 07:18:33;;;;;;;6.25;5.72;;;2.30;99.90;;;;;;5018138;28;20534;-77
2022/12/29 07:20:58;;;;;;;6.03;5.43;;;2.30;99.90;;;;;;5013359;28;20207;-77
2022/12/29 07:23:24;;;;;;;6.93;6.20;;;2.30;99.90;;;;;;5024464;28;20181;-76
2022/12/29 07:25:50;;;;;;;5.88;5.38;;;2.30;99.90;;;;;;5019561;28;20216;-77
2022/12/29 07:28:15;;;;;;;6.57;6.00;;;2.40;99.90;;;;;;5016512;28;20260;-75
2022/12/29 07:30:41;;;;;;;6.65;5.93;;;2.40;99.90;;;;;;5011638;28;20216;-75
2022/12/29 07:33:06;;;;;;;7.45;6.25;;;2.40;99.90;;;;;;5012366;28;20594;-75
2022/12/29 07:35:34;;;;;;;8.10;5.97;;;2.50;99.90;;;;;;5017260;28;20184;-75
2022/12/29 07:37:59;;;;;;;6.22;5.60;;;2.40;99.90;;;;;;5009062;28;20213;-75
2022/12/29 07:40:25;;;;;;;6.88;5.95;;;2.40;99.90;;;;;;5014459;28;20227;-75
2022/12/29 07:42:50;;;;;;;5.75;5.28;;;2.40;99.90;;;;;;5024310;28;20715;-75
2022/12/29 07:45:16;;;;;;;6.75;6.15;;;2.40;99.90;;;;;;5020364;28;20208;-75
2022/12/29 07:47:41;;;;;;;6.70;6.10;;;2.40;99.90;;;;;;5012316;28;20550;-75
2022/12/29 07:50:07;;;;;;;6.65;6.03;;;2.40;99.90;;;;;;5012032;28;20188;-75
2022/12/29 07:52:33;;;;;;;7.13;5.45;;;2.50;99.90;;;;;;5011889;28;20184;-75
2022/12/29 07:54:58;;;;;;;5.70;5.20;;;2.60;99.90;;;;;;5015807;28;20180;-74
2022/12/29 07:57:24;;;;;;;6.15;5.65;;;2.60;99.90;;;;;;5017479;28;20192;-75
2022/12/29 07:59:49;;;;;;;7.68;5.82;;;2.70;99.90;;;;;;5016014;28;20184;-74
2022/12/29 08:02:15;;;;;;;5.40;4.90;;;2.70;99.90;;;;;;5014755;28;20241;-75
2022/12/29 08:04:40;;;;;;;4.38;3.97;;;2.90;99.90;;;;;;5014843;28;20219;-75
2022/12/29 08:07:06;;;;;;;5.38;4.97;;;3.10;99.90;;;;;;5013414;28;20238;-75
2022/12/29 08:09:32;;;;;;;5.47;4.97;;;3.10;99.90;;;;;;5010651;28;20178;-75
2022/12/29 08:11:57;;;;;;;5.50;5.10;;;3.10;99.90;;;;;;5015605;28;20204;-75
2022/12/29 08:14:23;;;;;;;5.55;5.00;;;3.30;99.90;;;;;;5009208;28;20188;-75
2022/12/29 08:16:49;;;;;;;6.55;5.40;;;3.30;99.90;;;;;;5007708;28;20185;-75
2022/12/29 08:19:14;;;;;;;6.50;5.90;;;3.40;99.90;;;;;;5008528;28;20185;-75
2022/12/29 08:21:40;;;;;;;4.78;4.35;;;3.40;99.90;;;;;;5008775;28;20727;-75
2022/12/29 08:24:07;;;;;;;4.68;4.28;;;3.50;99.90;;;;;;5010901;28;20193;-75
2022/12/29 08:26:33;;;;;;;5.13;4.63;;;3.60;99.90;;;;;;5018281;28;20197;-75
2022/12/29 08:28:58;;;;;;;5.25;4.85;;;3.70;99.90;;;;;;5015249;28;20204;-75
2022/12/29 08:31:24;;;;;;;5.72;5.22;;;3.80;99.90;;;;;;5013851;28;20193;-78
2022/12/29 08:33:50;;;;;;;5.30;4.80;;;3.90;99.90;;;;;;5017506;28;20177;-75
2022/12/29 08:36:16;;;;;;;4.85;4.45;;;4.10;99.90;;;;;;5015883;28;20181;-76
2022/12/29 08:38:41;;;;;;;5.22;4.72;;;4.20;99.90;;;;;;5025248;28;20188;-77
2022/12/29 08:41:07;;;;;;;4.82;4.43;;;4.40;99.90;;;;;;5018503;28;20219;-78
2022/12/29 08:43:33;;;;;;;5.05;4.28;;;4.40;99.90;;;;;;5012089;28;20235;-76
2022/12/29 08:45:59;;;;;;;4.72;4.10;;;4.60;99.90;;;;;;5013435;28;20209;-76
2022/12/29 08:48:26;;;;;;;5.28;4.78;;;4.70;99.90;;;;;;5006392;28;20235;-76
2022/12/29 08:50:52;;;;;;;5.93;4.47;;;4.90;99.90;;;;;;5014567;28;20259;-79
2022/12/29 08:53:18;;;;;;;4.30;3.90;;;4.90;99.90;;;;;;5013601;28;20268;-76
2022/12/29 08:55:53;;;;;;;4.68;4.28;;;5.10;99.90;;;;;;5010221;28;20336;-76
2022/12/29 08:58:19;;;;;;;4.55;4.15;;;5.30;99.90;;;;;;5009601;28;20189;-75
2022/12/29 09:00:45;;;;;;;4.13;3.65;;;5.30;99.90;;;;;;5015239;28;20205;-75
2022/12/29 09:03:10;;;;;;;4.10;3.78;;;5.50;99.90;;;;;;5014584;28;20217;-76
2022/12/29 09:05:36;;;;;;;4.90;4.03;;;5.80;99.90;;;;;;5012900;28;20588;-76
2022/12/29 09:08:02;;;;;;;5.53;4.75;;;6.00;99.90;;;;;;5012546;28;20188;-75
2022/12/29 09:10:27;;;;;;;4.18;3.88;;;6.20;99.90;;;;;;5014472;28;20204;-76
2022/12/29 09:12:53;;;;;;;4.63;4.22;;;6.20;99.90;;;;;;5012530;28;20169;-76
2022/12/29 09:15:18;;;;;;;4.68;4.28;;;6.20;99.90;;;;;;5014508;28;20687;-75
2022/12/29 09:17:44;;;;;;;4.75;4.18;;;6.40;99.90;;;;;;5016131;28;20189;-75
2022/12/29 09:20:15;;;;;;;4.50;4.10;;;6.50;99.90;;;;;;5012481;28;20726;-76
2022/12/29 09:22:41;;;;;;;6.60;3.97;;;6.60;99.90;;;;;;5013300;28;20259;-76
2022/12/29 09:25:08;;;;;;;5.10;4.50;;;6.80;99.90;;;;;;5013158;28;20572;-76
2022/12/29 09:27:34;;;;;;;4.53;4.13;;;6.80;99.90;;;;;;5015144;28;20177;-76
2022/12/29 09:30:00;;;;;;;4.88;4.38;;;6.90;99.90;;;;;;5020906;28;20176;-77
2022/12/29 09:32:26;;;;;;;5.95;4.75;;;7.00;99.90;;;;;;5010830;28;20252;-76
2022/12/29 09:34:51;;;;;;;4.50;4.10;;;7.20;99.90;;;;;;5012992;28;20216;-77
2022/12/29 09:37:17;;;;;;;3.40;3.15;;;7.40;99.90;;;;;;5013979;28;20181;-77
2022/12/29 09:39:42;;;;;;;4.32;3.92;;;7.80;99.90;;;;;;5012695;28;20180;-77
2022/12/29 09:42:42;;;;;;;4.10;3.78;;;8.20;99.90;;;;;;5013025;28;20208;-77
2022/12/29 09:45:16;;;;;;;4.10;3.67;;;8.80;99.90;;;;;;5012363;28;20316;-73
2022/12/29 09:47:46;;;;;;;3.40;3.10;;;9.30;99.90;;;;;;5012816;28;20263;-73
2022/12/29 09:50:20;;;;;;;3.53;3.22;;;9.60;99.90;;;;;;5014512;28;20173;-74
2022/12/29 09:53:11;;;;;;;3.72;3.33;;;9.90;99.90;;;;;;5014857;28;20181;-74
2022/12/29 09:55:48;;;;;;;4.30;3.45;;;10.10;99.90;;;;;;5020672;28;20189;-75
2022/12/29 09:58:25;;;;;;;3.03;2.83;;;10.10;99.90;;;;;;5011961;28;20627;-74
2022/12/29 10:01:01;;;;;;;3.25;3.05;;;10.30;99.90;;;;;;5013884;28;20207;-74
2022/12/29 10:03:55;;;;;;;3.45;3.15;;;10.70;99.90;;;;;;5010007;28;20667;-74
2022/12/29 10:06:50;;;;;;;3.50;3.20;;;10.90;99.90;;;;;;5016174;28;20209;-74
2022/12/29 10:09:30;;;;;;;3.15;2.95;;;10.70;99.90;;;;;;5012130;28;20177;-75
2022/12/29 10:12:23;;;;;;;3.97;3.53;;;10.50;99.90;;;;;;5011416;28;20205;-76
2022/12/29 10:15:11;;;;;;;4.57;3.60;;;11.20;99.90;;;;;;5008420;28;20566;-74
2022/12/29 10:17:46;;;;;;;3.42;3.15;;;11.70;99.90;;;;;;5011434;28;20751;-74
2022/12/29 10:20:38;;;;;;;3.63;3.33;;;11.90;99.90;;;;;;5011610;28;20187;-74
2022/12/29 10:23:19;;;;;;;3.70;3.45;;;11.70;99.90;;;;;;5011250;28;20264;-74
2022/12/29 10:25:45;;;;;;;3.80;3.50;;;11.50;99.90;;;;;;5009572;28;20209;-74
2022/12/29 10:28:34;;;;;;;4.30;3.63;;;11.20;99.90;;;;;;5011582;28;20240;-75
2022/12/29 10:31:01;;;;;;;4.28;3.88;;;11.00;99.90;;;;;;5014424;28;20202;-75
2022/12/29 10:33:35;;;;;;;3.50;3.30;;;10.90;99.90;;;;;;5012787;28;20533;-75
2022/12/29 10:36:11;;;;;;;4.38;4.00;;;10.50;99.90;;;;;;5017599;28;20671;-75
2022/12/29 10:39:16;;;;;;;3.75;3.40;;;10.20;99.90;;;;;;5020067;28;20243;-75
2022/12/29 10:41:49;;;;;;;4.63;3.58;;;10.20;99.90;;;;;;5012428;28;20200;-75
2022/12/29 10:44:17;;;;;;;3.75;3.47;;;10.20;99.90;;;;;;5030410;28;20180;-76
2022/12/29 10:46:45;;;;;;;4.75;3.53;;;10.20;99.90;;;;;;5014145;28;20229;-75
2022/12/29 10:49:19;;;;;;;4.07;3.63;;;10.20;99.90;;;;;;5011404;28;20531;-75
2022/12/29 10:51:47;;;;;;;6.18;4.03;;;11.00;99.90;;;;;;5010762;28;20246;-75
2022/12/29 10:54:25;;;;;;;2.95;2.75;;;11.80;99.90;;;;;;5012998;28;20177;-75
2022/12/29 10:57:02;;;;;;;3.25;3.03;;;12.00;99.90;;;;;;5014155;28;20181;-75
2022/12/29 10:59:33;;;;;;;4.28;3.42;;;12.20;99.90;;;;;;5012590;28;20185;-75
2022/12/29 11:02:11;;;;;;;4.68;3.38;;;12.50;99.90;;;;;;5013625;28;20201;-75
2022/12/29 11:04:40;;;;;;;4.18;3.65;;;12.70;99.90;;;;;;5010757;28;20197;-75
2022/12/29 11:07:08;;;;;;;4.00;3.70;;;12.70;99.90;;;;;;5012054;28;20233;-75
2022/12/29 11:09:36;;;;;;;4.57;3.72;;;12.40;99.90;;;;;;5009683;28;20169;-75
2022/12/29 11:12:22;;;;;;;3.58;3.28;;;12.20;99.90;;;;;;5009125;28;20620;-75
2022/12/29 11:15:02;;;;;;;3.83;3.53;;;12.00;99.90;;;;;;5021371;28;20165;-74
2022/12/29 11:17:28;;;;;;;4.32;3.85;;;12.30;99.90;;;;;;5013091;28;20197;-75
2022/12/29 11:19:53;;;;;;;4.00;3.60;;;12.50;99.90;;;;;;5013646;28;20193;-75
2022/12/29 11:22:27;;;;;;;3.50;3.20;;;12.50;99.90;;;;;;5010621;28;20208;-74
2022/12/29 11:25:04;;;;;;;3.70;3.28;;;12.30;99.90;;;;;;5009953;28;20173;-75
2022/12/29 11:27:30;;;;;;;3.30;3.05;;;12.30;99.90;;;;;;5009796;28;20692;-74
2022/12/29 11:29:55;;;;;;;4.65;3.47;;;12.40;99.90;;;;;;5013241;28;20181;-75
2022/12/29 11:32:22;;;;;;;4.40;3.95;;;12.10;99.90;;;;;;5007334;28;20209;-74
2022/12/29 11:34:48;;;;;;;3.25;3.05;;;11.90;99.90;;;;;;5008607;28;20203;-74
2022/12/29 11:37:22;;;;;;;4.15;3.85;;;11.90;99.90;;;;;;5008648;28;20216;-75
2022/12/29 11:39:59;;;;;;;3.75;3.45;;;12.00;99.90;;;;;;5010817;28;20225;-75
2022/12/29 11:42:48;;;;;;;3.58;3.17;;;12.20;99.90;;;;;;5009098;28;20269;-75
2022/12/29 11:45:20;;;;;;;3.45;3.03;;;11.90;99.90;;;;;;5014672;28;20219;-75
2022/12/29 11:47:49;;;;;;;4.38;3.53;;;11.90;99.90;;;;;;5011006;28;20706;-76
2022/12/29 11:50:32;;;;;;;3.20;3.00;;;12.90;99.90;;;;;;5010438;28;20672;-79
2022/12/29 11:53:05;;;;;;;3.42;3.10;;;15.60;98.60;;;;;;5013733;28;20196;-77
2022/12/29 11:55:31;;;;;;;3.33;3.03;;;18.50;92.30;;;;;;5011015;28;20304;-79
2022/12/29 11:58:01;;;;;;;3.25;3.03;;;20.80;84.50;;;;;;5019101;28;20177;-79
2022/12/29 12:00:29;;;;;;;3.42;2.88;;;22.20;71.40;;;;;;5023548;28;20203;-79
2022/12/29 12:03:07;;;;;;;3.30;3.10;;;23.00;66.80;;;;;;5017256;28;20181;-79
2022/12/29 12:05:38;;;;;;;3.10;2.90;;;22.80;64.40;;;;;;5015883;28;20215;-79
2022/12/29 12:08:12;;;;;;;2.90;2.70;;;21.80;65.70;;;;;;5023594;28;20176;-81
2022/12/29 12:10:57;;;;;;;3.60;3.30;;;20.70;66.20;;;;;;5020050;28;20684;-80
2022/12/29 12:13:42;;;;;;;3.45;3.25;;;19.70;68.80;;;;;;5020604;28;20181;-81
2022/12/29 12:16:26;;;;;;;4.20;3.30;;;18.80;70.90;;;;;;5017210;28;20244;-79
2022/12/29 12:19:04;;;;;;;3.78;3.47;;;18.40;72.80;;;;;;5016464;28;20663;-79
2022/12/29 12:21:35;;;;;;;3.85;3.10;;;19.20;71.70;;;;;;5014336;28;20208;-79
2022/12/29 12:24:17;;;;;;;3.78;2.78;;;20.40;70.60;;;;;;5016524;28;20176;-79
2022/12/29 12:26:58;;;;;;;5.50;3.60;;;22.10;67.40;;;;;;5011615;28;20212;-79
2022/12/29 12:29:57;;;;;;;3.80;3.50;;;22.70;64.00;;;;;;5017242;28;20172;-78
2022/12/29 12:32:42;;;;;;;3.35;3.05;;;21.90;63.30;;;;;;5030333;28;20585;-79
2022/12/29 12:35:31;;;;;;;2.97;2.78;;;20.60;66.10;;;;;;5015486;28;20189;-79
2022/12/29 12:38:20;;;;;;;3.53;2.95;;;19.20;69.40;;;;;;5018355;28;20232;-78
2022/12/29 12:41:06;;;;;;;3.28;2.97;;;17.70;73.30;;;;;;5016746;28;20216;-79
2022/12/29 12:43:44;;;;;;;3.53;3.22;;;17.00;76.00;;;;;;5020761;28;20207;-79
2022/12/29 12:46:27;;;;;;;4.05;3.10;;;16.10;78.90;;;;;;5016518;28;20271;-79
2022/12/29 12:49:05;;;;;;;4.38;3.40;;;15.20;81.80;;;;;;5013869;28;21850;-78
2022/12/29 12:51:59;;;;;;;3.40;3.10;;;14.50;85.00;;;;;;5021645;28;20220;-79
2022/12/29 12:54:58;;;;;;;3.25;3.05;;;14.00;88.00;;;;;;5026611;28;20178;-79
2022/12/29 12:57:49;;;;;;;3.92;3.53;;;13.50;90.60;;;;;;5015638;28;20644;-78
2022/12/29 13:00:22;;;;;;;5.22;3.80;;;13.10;91.30;;;;;;5014068;28;20656;-78
2022/12/29 13:03:09;;;;;;;3.65;3.35;;;12.80;92.50;;;;;;5018825;28;20185;-78
2022/12/29 13:06:05;;;;;;;4.22;3.58;;;12.70;93.30;;;;;;5013113;28;20201;-78
2022/12/29 13:08:58;;;;;;;5.72;3.38;;;12.30;94.80;;;;;;5009902;28;20196;-78
2022/12/29 13:11:51;;;;;;;3.53;3.20;;;12.30;95.20;;;;;;5010232;28;20212;-78
2022/12/29 13:14:48;;;;;;;4.30;3.35;;;12.20;96.00;;;;;;5013980;28;20181;-78
2022/12/29 13:17:32;;;;;;;4.22;3.42;;;12.20;96.80;;;;;;5013293;28;20177;-78
2022/12/29 13:20:27;;;;;;;4.72;3.83;;;12.20;97.40;;;;;;5012092;28;20683;-79
2022/12/29 13:23:24;;;;;;;5.03;3.65;;;12.10;98.00;;;;;;5017351;28;20260;-78
2022/12/29 13:26:08;;;;;;;3.90;3.55;;;12.00;98.70;;;;;;5016510;28;20205;-78
2022/12/29 13:28:42;;;;;;;3.67;3.38;;;11.90;99.30;;;;;;5031600;28;20267;-78
2022/12/29 13:31:44;;;;;;;4.30;3.90;;;12.00;99.90;;;;;;5012253;28;20208;-78
2022/12/29 13:34:38;;;;;;;4.18;3.72;;;12.40;99.80;;;;;;5015571;28;20215;-78
2022/12/29 13:37:10;;;;;;;5.65;4.03;;;13.00;98.80;;;;;;5016501;28;20703;-78
2022/12/29 13:39:48;;;;;;;3.80;3.38;;;13.30;98.30;;;;;;5009655;28;20267;-78
2022/12/29 13:42:16;;;;;;;5.05;3.70;;;13.20;98.40;;;;;;5013054;28;20239;-78
2022/12/29 13:44:48;;;;;;;3.97;3.50;;;13.10;98.70;;;;;;5012167;28;20588;-78
2022/12/29 13:47:16;;;;;;;4.80;3.58;;;12.90;99.10;;;;;;5018451;28;20615;-78
2022/12/29 13:49:43;;;;;;;4.18;3.78;;;12.70;99.80;;;;;;5021047;28;20191;-78
2022/12/29 13:52:39;;;;;;;4.10;3.70;;;12.50;99.90;;;;;;5015749;28;20213;-78
2022/12/29 13:55:17;;;;;;;5.45;4.18;;;12.20;99.90;;;;;;5016071;28;20196;-78